createdAt,value
2022-08-05T00:01:27.861Z,22.45
2022-08-05T00:03:57.056Z,22.46
2022-08-05T00:06:32.129Z,22.35
2022-08-05T00:09:00.883Z,22.42
2022-08-05T00:11:30.520Z,22.40
2022-08-05T00:14:12.976Z,22.32
2022-08-05T00:16:52.793Z,22.34
2022-08-05T00:19:24.941Z,22.20
2022-08-05T00:21:59.635Z,22.18
2022-08-05T00:24:30.705Z,22.24
2022-08-05T00:27:01.719Z,22.29
2022-08-05T00:29:37.729Z,22.22
2022-08-05T00:32:12.445Z,22.24
2022-08-05T00:35:04.018Z,22.04
2022-08-05T00:37:35.321Z,22.03
2022-08-05T00:40:17.973Z,22.04
2022-08-05T00:42:54.918Z,21.81
2022-08-05T00:45:24.968Z,21.52
2022-08-05T00:48:05.202Z,20.88
2022-08-05T00:50:32.745Z,20.57
2022-08-05T00:52:59.568Z,20.30
2022-08-05T00:55:42.506Z,20.29
2022-08-05T00:58:13.990Z,20.83
2022-08-05T01:00:42.258Z,20.61
2022-08-05T01:03:10.644Z,20.35
2022-08-05T01:05:54.660Z,20.43
2022-08-05T01:08:40.148Z,20.70
2022-08-05T01:11:33.231Z,20.57
2022-08-05T01:14:08.989Z,20.61
2022-08-05T01:16:48.681Z,20.86
2022-08-05T01:19:56.078Z,20.87
2022-08-05T01:22:30.589Z,20.69
2022-08-05T01:25:39.891Z,20.81
2022-08-05T01:28:21.085Z,20.98
2022-08-05T01:31:03.011Z,21.12
2022-08-05T01:33:36.268Z,21.21
2022-08-05T01:36:13.146Z,21.27
2022-08-05T01:38:52.322Z,21.28
2022-08-05T01:41:25.807Z,21.50
2022-08-05T01:43:53.738Z,21.42
2022-08-05T01:46:42.933Z,21.44
2022-08-05T01:49:24.241Z,21.55
2022-08-05T01:51:59.158Z,21.50
2022-08-05T01:54:32.540Z,21.41
2022-08-05T01:58:11.777Z,21.36
2022-08-05T01:59:49.475Z,21.41
2022-08-05T02:02:20.304Z,21.46
2022-08-05T02:04:58.476Z,21.32
2022-08-05T02:07:25.594Z,21.39
2022-08-05T02:09:57.643Z,21.43
2022-08-05T02:12:33.159Z,21.26
2022-08-05T02:15:12.446Z,21.21
2022-08-05T02:18:28.451Z,21.27
2022-08-05T02:20:44.172Z,21.25
2022-08-05T02:23:14.963Z,21.12
2022-08-05T02:25:50.286Z,21.06
2022-08-05T02:28:29.058Z,21.10
2022-08-05T02:31:00.953Z,21.32
2022-08-05T02:33:36.028Z,21.38
2022-08-05T02:36:09.670Z,21.52
2022-08-05T02:38:44.059Z,21.54
2022-08-05T02:41:22.751Z,21.58
2022-08-05T02:44:02.679Z,21.45
2022-08-05T02:46:53.849Z,21.39
2022-08-05T02:49:36.624Z,21.31
2022-08-05T02:52:07.876Z,21.25
2022-08-05T02:54:41.283Z,21.28
2022-08-05T02:58:10.787Z,21.37
2022-08-05T03:00:01.342Z,21.32
2022-08-05T03:02:37.011Z,21.31
2022-08-05T03:05:05.111Z,21.35
2022-08-05T03:07:59.413Z,21.44
2022-08-05T03:10:21.950Z,21.47
2022-08-05T03:12:55.343Z,21.30
2022-08-05T03:15:24.281Z,21.29
2022-08-05T03:17:57.538Z,21.40
2022-08-05T03:20:24.968Z,21.36
2022-08-05T03:22:57.630Z,21.40
2022-08-05T03:25:34.054Z,21.20
2022-08-05T03:28:18.849Z,21.44
2022-08-05T03:30:48.380Z,21.41
2022-08-05T03:33:16.679Z,21.43
2022-08-05T03:35:46.507Z,21.45
2022-08-05T03:38:14.517Z,21.32
2022-08-05T03:40:48.569Z,21.44
2022-08-05T03:44:08.167Z,21.43
2022-08-05T03:46:04.910Z,21.45
2022-08-05T03:48:35.293Z,21.41
2022-08-05T03:52:35.218Z,21.38
2022-08-05T03:55:49.904Z,21.34
2022-08-05T03:57:41.755Z,21.33
2022-08-05T04:00:15.507Z,21.17
2022-08-05T04:02:58.035Z,21.23
2022-08-05T04:05:34.902Z,21.28
2022-08-05T04:08:30.119Z,21.21
2022-08-05T04:10:58.129Z,21.16
2022-08-05T04:13:50.036Z,21.13
2022-08-05T04:16:15.760Z,21.19
2022-08-05T04:18:54.313Z,21.21
2022-08-05T04:22:10.006Z,21.27
2022-08-05T04:24:09.088Z,21.28
2022-08-05T04:26:41.599Z,21.23
2022-08-05T04:29:08.374Z,21.28
2022-08-05T04:31:38.792Z,21.32
2022-08-05T04:34:33.117Z,21.38
2022-08-05T04:36:52.991Z,21.38
2022-08-05T04:39:20.254Z,21.50
2022-08-05T04:41:48.459Z,21.48
2022-08-05T04:44:16.150Z,21.45
2022-08-05T04:46:48.584Z,21.52
2022-08-05T04:49:15.497Z,21.55
2022-08-05T04:51:45.233Z,21.63
2022-08-05T04:54:16.696Z,21.42
2022-08-05T04:56:48.820Z,21.38
2022-08-05T04:59:21.824Z,21.18
2022-08-05T05:02:07.011Z,21.24
2022-08-05T05:04:35.794Z,21.54
2022-08-05T05:07:09.500Z,21.70
2022-08-05T05:09:37.232Z,21.76
2022-08-05T05:12:09.226Z,22.27
2022-08-05T05:14:49.369Z,22.53
2022-08-05T05:17:22.719Z,22.76
2022-08-05T05:20:16.572Z,23.00
2022-08-05T05:22:48.595Z,23.09
2022-08-05T05:25:17.444Z,23.42
2022-08-05T05:27:53.728Z,23.56
2022-08-05T05:30:31.358Z,23.58
2022-08-05T05:33:06.050Z,23.67
2022-08-05T05:35:43.612Z,23.96
2022-08-05T05:38:12.952Z,24.03
2022-08-05T05:40:49.942Z,24.03
2022-08-05T05:43:22.406Z,24.25
2022-08-05T05:46:10.695Z,24.44
2022-08-05T05:48:43.971Z,24.36
2022-08-05T05:51:15.489Z,24.46
2022-08-05T05:53:45.908Z,24.46
2022-08-05T05:56:26.013Z,24.45
2022-08-05T05:59:03.096Z,24.63
2022-08-05T06:01:37.477Z,24.61
2022-08-05T06:04:07.140Z,24.49
2022-08-05T06:06:35.094Z,24.47
2022-08-05T06:09:04.210Z,24.45
2022-08-05T06:11:32.042Z,24.32
2022-08-05T06:14:00.476Z,24.30
2022-08-05T06:16:36.960Z,24.34
2022-08-05T06:19:05.841Z,24.48
2022-08-05T06:21:37.054Z,24.52
2022-08-05T06:24:12.071Z,24.48
2022-08-05T06:26:51.201Z,24.60
2022-08-05T06:29:46.697Z,24.72
2022-08-05T06:32:20.961Z,24.80
2022-08-05T06:34:53.606Z,24.85
2022-08-05T06:37:55.842Z,25.01
2022-08-05T06:40:10.590Z,25.03
2022-08-05T06:42:39.873Z,25.04
2022-08-05T06:45:08.500Z,25.07
2022-08-05T06:48:44.247Z,25.15
2022-08-05T06:50:22.601Z,25.23
2022-08-05T06:53:04.056Z,25.39
2022-08-05T06:55:42.049Z,25.58
2022-08-05T06:58:19.905Z,25.84
2022-08-05T07:00:50.201Z,26.06
2022-08-05T07:03:16.963Z,26.30
2022-08-05T07:05:44.133Z,26.43
2022-08-05T07:08:13.266Z,26.61
2022-08-05T07:10:52.779Z,26.68
2022-08-05T07:13:57.550Z,26.71
2022-08-05T07:17:59.113Z,26.69
2022-08-05T07:20:16.651Z,26.88
2022-08-05T07:22:27.801Z,26.74
2022-08-05T07:25:09.441Z,26.79
2022-08-05T07:27:56.346Z,26.95
2022-08-05T07:30:32.133Z,27.13
2022-08-05T07:33:00.068Z,27.46
2022-08-05T07:36:02.191Z,27.64
2022-08-05T07:38:32.739Z,27.79
2022-08-05T07:41:16.615Z,28.07
2022-08-05T07:43:48.562Z,28.34
2022-08-05T07:46:20.745Z,28.32
2022-08-05T07:49:02.529Z,28.38
2022-08-05T07:51:37.230Z,28.16
2022-08-05T07:54:05.560Z,28.42
2022-08-05T07:57:00.286Z,28.52
2022-08-05T07:59:22.041Z,28.94
2022-08-05T08:01:52.235Z,29.15
2022-08-05T08:04:37.955Z,29.39
2022-08-05T08:07:07.184Z,29.67
2022-08-05T08:09:34.847Z,29.77
2022-08-05T08:12:10.719Z,29.65
2022-08-05T08:14:46.788Z,29.30
2022-08-05T08:17:15.779Z,29.30
2022-08-05T08:20:22.214Z,29.10
2022-08-05T08:22:30.954Z,28.63
2022-08-05T08:25:03.348Z,28.31
2022-08-05T08:27:40.165Z,28.45
2022-08-05T08:30:30.092Z,28.58
2022-08-05T08:33:11.117Z,28.91
2022-08-05T08:35:41.072Z,29.31
2022-08-05T08:38:11.748Z,29.58
2022-08-05T08:40:46.740Z,29.79
2022-08-05T08:45:16.570Z,29.74
2022-08-05T08:46:10.013Z,29.02
2022-08-05T08:49:08.062Z,28.92
2022-08-05T08:52:04.052Z,28.72
2022-08-05T08:54:21.075Z,28.77
2022-08-05T08:56:54.362Z,28.63
2022-08-05T08:59:27.599Z,28.52
2022-08-05T09:02:01.440Z,28.93
2022-08-05T09:04:30.387Z,29.24
2022-08-05T09:06:58.349Z,29.41
2022-08-05T09:09:32.482Z,29.69
2022-08-05T09:12:19.938Z,29.85
2022-08-05T09:14:58.978Z,30.01
2022-08-05T09:17:40.748Z,30.55
2022-08-05T09:20:11.522Z,30.92
2022-08-05T09:23:19.542Z,31.19
2022-08-05T09:26:01.996Z,31.47
2022-08-05T09:28:38.217Z,31.87
2022-08-05T09:31:23.354Z,32.27
2022-08-05T09:34:06.393Z,31.68
2022-08-05T09:36:54.905Z,30.48
2022-08-05T09:39:27.677Z,30.51
2022-08-05T09:42:08.600Z,31.04
2022-08-05T09:44:50.816Z,31.79
2022-08-05T09:47:23.635Z,32.46
2022-08-05T09:50:01.190Z,32.53
2022-08-05T09:52:35.075Z,32.94
2022-08-05T09:55:56.108Z,32.97
2022-08-05T09:57:59.928Z,32.98
2022-08-05T10:00:27.812Z,33.40
2022-08-05T10:02:58.251Z,33.75
2022-08-05T10:05:28.516Z,33.41
2022-08-05T10:08:35.081Z,33.32
2022-08-05T10:10:53.924Z,33.38
2022-08-05T10:13:47.262Z,33.53
2022-08-05T10:16:37.954Z,32.91
2022-08-05T10:19:11.749Z,32.31
2022-08-05T10:21:40.878Z,31.18
2022-08-05T10:24:13.359Z,30.84
2022-08-05T10:26:48.948Z,30.58
2022-08-05T10:29:24.199Z,30.01
2022-08-05T10:32:53.761Z,30.28
2022-08-05T10:34:55.774Z,30.63
2022-08-05T10:37:40.311Z,30.55
2022-08-05T10:40:27.844Z,30.31
2022-08-05T10:43:01.483Z,29.95
2022-08-05T10:45:40.245Z,29.73
2022-08-05T10:48:57.275Z,29.93
2022-08-05T10:51:28.879Z,29.85
2022-08-05T10:54:01.755Z,29.85
2022-08-05T10:56:45.258Z,29.89
2022-08-05T11:00:03.392Z,29.81
2022-08-05T11:02:14.562Z,30.11
2022-08-05T11:04:59.539Z,30.55
2022-08-05T11:07:33.065Z,31.02
2022-08-05T11:10:23.148Z,31.16
2022-08-05T11:12:57.769Z,30.97
2022-08-05T11:16:00.068Z,30.89
2022-08-05T11:18:32.672Z,31.17
2022-08-05T11:21:02.916Z,31.23
2022-08-05T11:24:05.717Z,31.18
2022-08-05T11:26:40.549Z,31.52
2022-08-05T11:29:41.016Z,31.92
2022-08-05T11:32:30.107Z,32.51
2022-08-05T11:34:57.631Z,32.49
2022-08-05T11:38:37.087Z,32.59
2022-08-05T11:41:35.408Z,32.85
2022-08-05T11:44:07.020Z,32.73
2022-08-05T11:47:13.960Z,32.58
2022-08-05T11:49:49.694Z,32.21
2022-08-05T11:52:29.653Z,32.29
2022-08-05T11:54:58.681Z,32.61
2022-08-05T11:57:30.190Z,32.99
2022-08-05T11:59:58.295Z,33.36
2022-08-05T12:02:36.055Z,33.61
2022-08-05T12:05:08.164Z,33.64
2022-08-05T12:08:08.838Z,33.76
2022-08-05T12:10:42.840Z,33.49
2022-08-05T12:13:15.848Z,32.82
2022-08-05T12:15:50.022Z,32.62
2022-08-05T12:18:32.990Z,32.34
2022-08-05T12:21:10.984Z,32.42
2022-08-05T12:23:43.124Z,32.29
2022-08-05T12:26:10.091Z,32.12
2022-08-05T12:28:37.916Z,32.19
2022-08-05T12:31:05.734Z,32.35
2022-08-05T12:33:36.313Z,32.66
2022-08-05T12:36:08.824Z,32.76
2022-08-05T12:38:41.125Z,32.65
2022-08-05T12:41:16.126Z,32.59
2022-08-05T12:44:01.362Z,33.22
2022-08-05T12:46:31.151Z,34.24
2022-08-05T12:48:59.035Z,34.79
2022-08-05T12:52:13.943Z,34.90
2022-08-05T12:54:23.348Z,34.55
2022-08-05T12:57:09.401Z,34.13
2022-08-05T13:01:56.895Z,33.95
2022-08-05T13:02:40.215Z,34.25
2022-08-05T13:05:12.749Z,34.58
2022-08-05T13:08:00.601Z,35.01
2022-08-05T13:10:31.185Z,35.42
2022-08-05T13:12:58.481Z,35.80
2022-08-05T13:15:42.146Z,35.16
2022-08-05T13:18:20.738Z,34.87
2022-08-05T13:20:50.134Z,35.53
2022-08-05T13:23:18.108Z,36.28
2022-08-05T13:25:52.301Z,36.70
2022-08-05T13:28:32.343Z,36.74
2022-08-05T13:30:59.481Z,36.85
2022-08-05T13:34:22.896Z,36.90
2022-08-05T13:36:16.827Z,36.85
2022-08-05T13:38:43.463Z,36.30
2022-08-05T13:41:11.611Z,36.55
2022-08-05T13:43:45.305Z,36.59
2022-08-05T13:46:50.953Z,36.61
2022-08-05T13:49:11.742Z,36.29
2022-08-05T13:51:40.921Z,36.52
2022-08-05T13:54:13.234Z,36.53
2022-08-05T13:56:45.173Z,36.75
2022-08-05T13:59:21.122Z,35.90
2022-08-05T14:01:58.585Z,35.33
2022-08-05T14:04:50.069Z,35.35
2022-08-05T14:07:25.411Z,35.37
2022-08-05T14:10:28.485Z,34.85
2022-08-05T14:12:57.714Z,34.22
2022-08-05T14:16:08.019Z,33.90
2022-08-05T14:18:17.350Z,33.63
2022-08-05T14:20:48.030Z,33.52
2022-08-05T14:23:23.991Z,33.82
2022-08-05T14:25:58.979Z,33.53
2022-08-05T14:28:29.569Z,33.68
2022-08-05T14:31:00.877Z,34.36
2022-08-05T14:33:57.091Z,34.89
2022-08-05T14:36:15.724Z,34.94
2022-08-05T14:38:47.470Z,35.37
2022-08-05T14:41:14.950Z,35.58
2022-08-05T14:44:02.393Z,35.89
2022-08-05T14:46:32.642Z,35.83
2022-08-05T14:49:06.483Z,36.45
2022-08-05T14:51:35.309Z,36.96
2022-08-05T14:54:27.945Z,37.09
2022-08-05T14:56:48.566Z,36.70
2022-08-05T14:59:15.721Z,36.25
2022-08-05T15:01:48.055Z,36.11
2022-08-05T15:04:17.332Z,36.49
2022-08-05T15:06:49.361Z,36.02
2022-08-05T15:09:52.624Z,35.80
2022-08-05T15:12:09.007Z,35.75
2022-08-05T15:14:48.348Z,34.68
2022-08-05T15:17:47.096Z,35.20
2022-08-05T15:20:04.308Z,35.67
2022-08-05T15:22:30.871Z,36.22
2022-08-05T15:24:59.188Z,35.89
2022-08-05T15:27:32.145Z,35.51
2022-08-05T15:30:03.674Z,35.70
2022-08-05T15:32:30.280Z,35.97
2022-08-05T15:34:58.341Z,35.81
2022-08-05T15:38:33.252Z,35.49
2022-08-05T15:40:59.097Z,35.39
2022-08-05T15:43:09.228Z,35.14
2022-08-05T15:45:45.964Z,34.68
2022-08-05T15:48:13.901Z,34.29
2022-08-05T15:50:43.615Z,34.13
2022-08-05T15:53:12.466Z,33.90
2022-08-05T15:56:03.808Z,33.64
2022-08-05T15:58:29.717Z,33.24
2022-08-05T16:01:04.412Z,33.02
2022-08-05T16:03:43.041Z,32.59
2022-08-05T16:06:11.302Z,32.29
2022-08-05T16:08:38.298Z,31.95
2022-08-05T16:11:05.093Z,31.65
2022-08-05T16:13:34.247Z,31.39
2022-08-05T16:16:03.294Z,31.18
2022-08-05T16:18:32.830Z,31.07
2022-08-05T16:21:04.544Z,30.84
2022-08-05T16:23:53.082Z,30.76
2022-08-05T16:26:18.956Z,30.72
2022-08-05T16:28:53.129Z,30.62
2022-08-05T16:31:21.359Z,30.64
2022-08-05T16:33:48.213Z,30.63
2022-08-05T16:36:14.829Z,30.28
2022-08-05T16:38:54.442Z,30.36
2022-08-05T16:42:14.700Z,30.30
2022-08-05T16:44:11.967Z,30.34
2022-08-05T16:46:41.038Z,30.25
2022-08-05T16:49:09.232Z,30.18
2022-08-05T16:51:42.337Z,30.00
2022-08-05T16:54:24.849Z,29.85
2022-08-05T16:56:54.183Z,29.58
2022-08-05T16:59:20.785Z,29.35
2022-08-05T17:01:53.564Z,29.14
2022-08-05T17:04:21.953Z,29.03
2022-08-05T17:06:53.010Z,29.07
2022-08-05T17:09:20.550Z,28.98
2022-08-05T17:11:48.829Z,28.88
2022-08-05T17:14:22.350Z,28.82
2022-08-05T17:17:04.138Z,28.98
2022-08-05T17:19:31.307Z,28.88
2022-08-05T17:21:58.566Z,28.87
2022-08-05T17:24:38.643Z,28.69
2022-08-05T17:27:09.316Z,28.64
2022-08-05T17:29:41.290Z,28.66
2022-08-05T17:32:17.131Z,28.66
2022-08-05T17:34:47.795Z,28.55
2022-08-05T17:37:39.716Z,28.41
2022-08-05T17:40:10.890Z,28.35
2022-08-05T17:42:42.912Z,28.40
2022-08-05T17:45:20.270Z,28.41
2022-08-05T17:47:52.993Z,28.40
2022-08-05T17:50:28.771Z,28.44
2022-08-05T17:52:59.266Z,28.48
2022-08-05T17:55:37.218Z,28.38
2022-08-05T17:58:06.870Z,28.27
2022-08-05T18:00:34.610Z,28.21
2022-08-05T18:03:02.125Z,28.10
2022-08-05T18:05:28.927Z,28.06
2022-08-05T18:08:02.280Z,27.85
2022-08-05T18:10:33.419Z,27.77
2022-08-05T18:13:00.632Z,27.83
2022-08-05T18:15:31.072Z,27.83
2022-08-05T18:18:05.766Z,27.76
2022-08-05T18:20:37.785Z,27.75
2022-08-05T18:23:09.320Z,27.76
2022-08-05T18:25:44.742Z,27.61
2022-08-05T18:28:17.890Z,27.56
2022-08-05T18:30:51.158Z,27.44
2022-08-05T18:33:22.400Z,27.30
2022-08-05T18:36:04.241Z,27.15
2022-08-05T18:38:37.165Z,27.24
2022-08-05T18:41:57.225Z,27.17
2022-08-05T18:43:53.077Z,27.09
2022-08-05T18:46:20.681Z,27.06
2022-08-05T18:48:51.884Z,27.11
2022-08-05T18:52:04.970Z,27.07
2022-08-05T18:54:25.398Z,26.98
2022-08-05T18:56:52.229Z,26.92
2022-08-05T18:59:43.651Z,26.89
2022-08-05T19:02:11.317Z,26.89
2022-08-05T19:05:01.639Z,26.90
2022-08-05T19:07:45.871Z,26.85
2022-08-05T19:10:14.762Z,26.75
2022-08-05T19:12:41.672Z,26.69
2022-08-05T19:15:45.065Z,26.62
2022-08-05T19:18:09.239Z,26.59
2022-08-05T19:20:41.841Z,26.54
2022-08-05T19:24:04.140Z,26.53
2022-08-05T19:26:03.324Z,26.55
2022-08-05T19:28:34.734Z,26.50
2022-08-05T19:31:01.480Z,26.49
2022-08-05T19:33:36.189Z,26.49
2022-08-05T19:36:06.361Z,26.49
2022-08-05T19:38:35.866Z,26.49
2022-08-05T19:41:07.142Z,26.47
2022-08-05T19:44:06.283Z,26.50
2022-08-05T19:46:30.668Z,26.54
2022-08-05T19:49:01.064Z,26.56
2022-08-05T19:52:05.666Z,26.50
2022-08-05T19:54:27.045Z,26.35
2022-08-05T19:56:59.177Z,26.25
2022-08-05T19:59:55.411Z,26.24
2022-08-05T20:02:17.613Z,26.06
2022-08-05T20:04:46.167Z,26.03
2022-08-05T20:07:15.689Z,26.01
2022-08-05T20:10:04.858Z,25.93
2022-08-05T20:12:40.007Z,25.83
2022-08-05T20:15:15.866Z,25.80
2022-08-05T20:18:10.520Z,25.70
2022-08-05T20:20:51.047Z,25.74
2022-08-05T20:23:17.607Z,25.72
2022-08-05T20:25:52.214Z,25.67
2022-08-05T20:28:19.176Z,25.54
2022-08-05T20:30:48.871Z,25.61
2022-08-05T20:33:16.672Z,25.51
2022-08-05T20:35:45.663Z,25.29
2022-08-05T20:38:20.215Z,25.34
2022-08-05T20:40:56.838Z,25.22
2022-08-05T20:43:57.528Z,25.13
2022-08-05T20:46:18.464Z,25.00
2022-08-05T20:48:51.770Z,25.00
2022-08-05T20:51:21.966Z,24.87
2022-08-05T20:56:42.503Z,24.73
2022-08-05T21:02:26.894Z,24.56
2022-08-05T21:04:56.292Z,24.51
2022-08-05T21:07:23.987Z,24.67
2022-08-05T21:09:53.786Z,24.52
2022-08-05T21:12:32.960Z,24.60
2022-08-05T21:14:59.658Z,24.43
2022-08-05T21:17:27.063Z,24.65
2022-08-05T21:19:57.600Z,24.59
2022-08-05T21:22:26.307Z,24.53
2022-08-05T21:24:54.496Z,24.51
2022-08-05T21:27:25.547Z,24.55
2022-08-05T21:29:57.527Z,24.50
2022-08-05T21:32:26.705Z,24.41
2022-08-05T21:35:17.861Z,24.50
2022-08-05T21:37:47.141Z,24.43
2022-08-05T21:40:14.409Z,24.41
2022-08-05T21:42:44.788Z,24.48
2022-08-05T21:45:13.659Z,24.52
2022-08-05T21:47:58.227Z,24.42
2022-08-05T21:50:26.466Z,24.32
2022-08-05T21:52:59.025Z,24.38
2022-08-05T21:56:01.217Z,24.38
2022-08-05T21:58:19.494Z,24.32
2022-08-05T22:00:51.330Z,24.27
2022-08-05T22:03:18.548Z,24.38
2022-08-05T22:06:06.346Z,24.40
2022-08-05T22:08:35.067Z,24.35
2022-08-05T22:11:01.737Z,24.32
2022-08-05T22:14:06.148Z,24.14
2022-08-05T22:16:41.396Z,24.22
2022-08-05T22:20:00.614Z,24.18
2022-08-05T22:21:53.182Z,24.19
2022-08-05T22:24:40.606Z,24.12
2022-08-05T22:28:08.891Z,24.18
2022-08-05T22:30:23.280Z,24.21
2022-08-05T22:32:49.855Z,24.15
2022-08-05T22:35:16.426Z,24.05
2022-08-05T22:37:59.168Z,24.07
2022-08-05T22:40:30.639Z,24.11
2022-08-05T22:42:58.393Z,24.10
2022-08-05T22:45:26.521Z,24.14
2022-08-05T22:47:59.275Z,24.12
2022-08-05T22:50:27.969Z,24.03
2022-08-05T22:52:57.604Z,24.09
2022-08-05T22:55:26.684Z,24.07
2022-08-05T22:58:03.800Z,24.00
2022-08-05T23:00:31.785Z,23.89
2022-08-05T23:05:42.323Z,23.94
2022-08-05T23:10:57.194Z,23.92
2022-08-05T23:13:25.453Z,23.96
2022-08-05T23:15:52.072Z,23.94
2022-08-05T23:18:18.708Z,24.02
2022-08-05T23:20:49.559Z,23.91
2022-08-05T23:23:16.382Z,23.97
2022-08-05T23:25:53.628Z,23.91
2022-08-05T23:28:24.047Z,23.96
2022-08-05T23:31:15.772Z,23.93
2022-08-05T23:34:04.884Z,23.84
2022-08-05T23:36:40.312Z,23.76
2022-08-05T23:39:16.425Z,23.80
2022-08-05T23:41:50.810Z,23.72
2022-08-05T23:44:19.815Z,23.84
2022-08-05T23:46:51.931Z,23.84
2022-08-05T23:49:23.825Z,23.78
2022-08-05T23:52:11.036Z,23.80
2022-08-05T23:54:38.686Z,23.75
2022-08-05T23:57:07.053Z,23.70
